createdAt,value
2022-08-19T00:00:21.430Z,17.08
2022-08-19T00:01:43.764Z,17.05
2022-08-19T00:02:51.767Z,17.19
2022-08-19T00:04:03.337Z,17.19
2022-08-19T00:05:14.315Z,17.36
2022-08-19T00:06:22.616Z,17.46
2022-08-19T00:07:31.023Z,17.69
2022-08-19T00:08:40.296Z,17.67
2022-08-19T00:09:50.673Z,17.81
2022-08-19T00:11:00.949Z,18.00
2022-08-19T00:12:11.167Z,18.05
2022-08-19T00:13:19.215Z,18.03
2022-08-19T00:14:28.415Z,18.11
2022-08-19T00:15:39.128Z,18.08
2022-08-19T00:16:49.799Z,17.76
2022-08-19T00:17:57.631Z,18.10
2022-08-19T00:19:04.796Z,18.53
2022-08-19T00:20:14.974Z,18.69
2022-08-19T00:21:23.320Z,18.81
2022-08-19T00:22:34.020Z,18.72
2022-08-19T00:23:42.796Z,18.55
2022-08-19T00:24:51.955Z,18.52
2022-08-19T00:25:59.839Z,18.85
2022-08-19T00:27:25.621Z,18.95
2022-08-19T00:28:36.112Z,18.46
2022-08-19T00:29:44.569Z,18.58
2022-08-19T00:30:55.575Z,18.38
2022-08-19T00:32:03.908Z,18.22
2022-08-19T00:33:13.092Z,18.31
2022-08-19T00:34:22.972Z,18.63
2022-08-19T00:35:30.585Z,18.48
2022-08-19T00:36:39.945Z,18.88
2022-08-19T00:37:48.841Z,18.99
2022-08-19T00:38:56.167Z,18.78
2022-08-19T00:40:05.869Z,19.35
2022-08-19T00:41:20.934Z,19.73
2022-08-19T00:42:30.657Z,19.86
2022-08-19T00:43:39.038Z,19.44
2022-08-19T00:44:46.255Z,19.16
2022-08-19T00:45:56.086Z,19.12
2022-08-19T00:47:03.522Z,19.49
2022-08-19T00:48:19.443Z,19.79
2022-08-19T00:49:48.391Z,19.72
2022-08-19T00:50:59.341Z,20.03
2022-08-19T00:52:19.292Z,20.06
2022-08-19T00:53:32.669Z,19.94
2022-08-19T00:54:50.773Z,19.87
2022-08-19T00:56:04.712Z,20.08
2022-08-19T00:57:15.670Z,20.04
2022-08-19T00:58:30.642Z,19.82
2022-08-19T01:00:00.417Z,20.00
2022-08-19T01:01:22.591Z,20.55
2022-08-19T01:02:34.211Z,20.48
2022-08-19T01:03:58.248Z,20.50
2022-08-19T01:05:16.354Z,20.63
2022-08-19T01:06:25.070Z,20.75
2022-08-19T01:07:35.880Z,20.83
2022-08-19T01:08:56.217Z,20.69
2022-08-19T01:10:12.311Z,20.76
2022-08-19T01:11:33.540Z,20.63
2022-08-19T01:13:04.221Z,20.79
2022-08-19T01:14:14.408Z,20.99
2022-08-19T01:15:30.347Z,20.86
2022-08-19T01:16:51.591Z,21.06
2022-08-19T01:20:22.464Z,21.68
2022-08-19T01:21:49.828Z,21.84
2022-08-19T01:23:01.663Z,21.77
2022-08-19T01:24:10.483Z,21.83
2022-08-19T01:25:25.116Z,21.99
2022-08-19T01:26:44.086Z,22.01
2022-08-19T01:27:53.308Z,22.10
2022-08-19T01:29:10.521Z,22.00
2022-08-19T01:30:24.465Z,21.96
2022-08-19T01:31:35.703Z,21.73
2022-08-19T01:32:45.533Z,21.91
2022-08-19T01:33:54.097Z,22.18
2022-08-19T01:35:05.101Z,22.63
2022-08-19T01:36:19.654Z,22.84
2022-08-19T01:37:29.798Z,23.05
2022-08-19T01:38:44.050Z,22.52
2022-08-19T01:39:53.848Z,22.39
2022-08-19T01:41:02.343Z,22.66
2022-08-19T01:42:21.377Z,22.64
2022-08-19T01:44:13.233Z,22.67
2022-08-19T01:45:17.793Z,22.87
2022-08-19T01:46:27.958Z,22.99
2022-08-19T01:47:39.181Z,23.34
2022-08-19T01:48:47.273Z,23.63
2022-08-19T01:49:57.087Z,23.80
2022-08-19T01:51:09.199Z,23.85
2022-08-19T01:52:19.342Z,24.09
2022-08-19T01:53:33.786Z,24.24
2022-08-19T01:54:44.919Z,24.61
2022-08-19T01:55:52.617Z,24.88
2022-08-19T01:57:11.791Z,25.05
2022-08-19T01:58:23.242Z,24.94
2022-08-19T01:59:32.032Z,25.18
2022-08-19T02:00:42.530Z,25.45
2022-08-19T02:01:50.102Z,25.69
2022-08-19T02:02:59.384Z,25.68
2022-08-19T02:04:08.369Z,25.52
2022-08-19T02:05:17.006Z,25.81
2022-08-19T02:06:28.707Z,25.83
2022-08-19T02:07:39.565Z,25.73
2022-08-19T02:08:50.350Z,25.87
2022-08-19T02:10:00.583Z,26.08
2022-08-19T02:11:13.115Z,26.41
2022-08-19T02:12:21.463Z,26.91
2022-08-19T02:13:30.344Z,27.30
2022-08-19T02:14:39.380Z,27.34
2022-08-19T02:15:48.126Z,27.46
2022-08-19T02:16:55.923Z,27.35
2022-08-19T02:18:04.025Z,27.46
2022-08-19T02:19:13.171Z,27.62
2022-08-19T02:20:22.076Z,28.07
2022-08-19T02:21:30.435Z,28.33
2022-08-19T02:22:41.205Z,28.51
2022-08-19T02:23:50.336Z,28.57
2022-08-19T02:25:00.579Z,28.54
2022-08-19T02:26:10.107Z,28.69
2022-08-19T02:27:19.179Z,28.79
2022-08-19T02:28:27.495Z,28.84
2022-08-19T02:29:38.616Z,29.18
2022-08-19T02:30:47.999Z,29.32
2022-08-19T02:31:56.029Z,29.44
2022-08-19T02:33:07.488Z,29.55
2022-08-19T02:34:17.693Z,29.65
2022-08-19T02:35:26.964Z,29.71
2022-08-19T02:36:36.577Z,30.05
2022-08-19T02:38:10.892Z,30.19
2022-08-19T02:39:34.640Z,30.07
2022-08-19T02:40:54.842Z,30.47
2022-08-19T02:42:06.603Z,30.69
2022-08-19T02:43:16.424Z,30.92
2022-08-19T02:44:31.607Z,31.00
2022-08-19T02:45:45.262Z,31.16
2022-08-19T02:46:52.933Z,31.24
2022-08-19T02:48:10.120Z,31.47
2022-08-19T02:49:37.346Z,31.59
2022-08-19T02:50:51.861Z,31.35
2022-08-19T02:52:06.332Z,31.31
2022-08-19T02:53:18.487Z,31.38
2022-08-19T02:54:28.510Z,31.41
2022-08-19T02:55:45.916Z,31.51
2022-08-19T02:56:54.529Z,31.43
2022-08-19T02:58:04.307Z,31.61
2022-08-19T02:59:18.488Z,31.64
2022-08-19T03:00:34.082Z,31.69
2022-08-19T03:01:48.572Z,31.68
2022-08-19T03:02:57.316Z,31.66
2022-08-19T03:04:08.303Z,31.71
2022-08-19T03:05:16.761Z,31.53
2022-08-19T03:06:27.600Z,31.61
2022-08-19T03:07:35.222Z,31.43
2022-08-19T03:08:48.045Z,31.17
2022-08-19T03:09:57.124Z,31.02
2022-08-19T03:11:05.078Z,30.92
2022-08-19T03:12:13.998Z,30.79
2022-08-19T03:13:23.432Z,30.03
2022-08-19T03:14:35.844Z,29.75
2022-08-19T03:15:48.481Z,29.19
2022-08-19T03:16:59.957Z,28.78
2022-08-19T03:18:07.989Z,28.79
2022-08-19T03:19:19.148Z,29.32
2022-08-19T03:20:29.019Z,30.14
2022-08-19T03:21:38.567Z,30.52
2022-08-19T03:22:47.164Z,29.65
2022-08-19T03:23:57.427Z,29.19
2022-08-19T03:25:06.357Z,28.74
2022-08-19T03:26:19.841Z,28.84
2022-08-19T03:27:32.554Z,29.14
2022-08-19T03:28:50.859Z,29.34
2022-08-19T03:30:03.375Z,29.87
2022-08-19T03:31:45.077Z,30.41
2022-08-19T03:32:54.304Z,30.71
2022-08-19T03:34:06.344Z,31.16
2022-08-19T03:35:16.119Z,31.56
2022-08-19T03:36:26.378Z,31.90
2022-08-19T03:37:38.372Z,32.16
2022-08-19T03:38:56.291Z,32.62
2022-08-19T03:40:14.530Z,32.93
2022-08-19T03:41:44.244Z,33.36
2022-08-19T03:42:53.080Z,34.10
2022-08-19T03:44:07.741Z,34.75
2022-08-19T03:45:36.118Z,35.79
2022-08-19T03:47:07.558Z,36.13
2022-08-19T03:48:16.755Z,36.03
2022-08-19T03:49:33.282Z,36.03
2022-08-19T03:50:44.788Z,36.23
2022-08-19T03:51:53.821Z,36.72
2022-08-19T03:53:01.668Z,36.78
2022-08-19T03:54:13.674Z,37.28
2022-08-19T03:55:21.927Z,37.70
2022-08-19T03:56:34.192Z,37.50
2022-08-19T03:57:42.863Z,37.35
2022-08-19T03:58:50.336Z,37.89
2022-08-19T04:00:04.052Z,38.37
2022-08-19T04:01:30.746Z,38.83
2022-08-19T04:02:46.478Z,38.95
2022-08-19T04:04:11.038Z,39.53
2022-08-19T04:05:21.729Z,39.81
2022-08-19T04:06:39.789Z,40.08
2022-08-19T04:07:49.202Z,40.65
2022-08-19T04:08:59.232Z,40.67
2022-08-19T04:10:07.362Z,40.60
2022-08-19T04:11:43.400Z,40.50
2022-08-19T04:12:54.560Z,40.42
2022-08-19T04:14:12.353Z,40.44
2022-08-19T04:15:21.890Z,40.51
2022-08-19T04:16:35.781Z,41.08
2022-08-19T04:17:48.389Z,40.89
2022-08-19T04:19:04.322Z,40.82
2022-08-19T04:20:13.089Z,41.02
2022-08-19T04:21:28.192Z,40.76
2022-08-19T04:22:36.823Z,40.87
2022-08-19T04:23:45.995Z,40.92
2022-08-19T04:24:55.805Z,40.83
2022-08-19T04:26:07.143Z,40.50
2022-08-19T04:27:21.348Z,40.52
2022-08-19T04:28:31.935Z,40.50
2022-08-19T04:29:43.591Z,40.44
2022-08-19T04:30:53.050Z,40.92
2022-08-19T04:32:09.038Z,40.86
2022-08-19T04:33:23.988Z,41.07
2022-08-19T04:35:02.731Z,41.30
2022-08-19T04:36:10.372Z,41.56
2022-08-19T04:37:19.150Z,41.88
2022-08-19T04:38:27.754Z,41.85
2022-08-19T04:39:58.785Z,41.90
2022-08-19T04:41:30.565Z,42.07
2022-08-19T04:42:42.367Z,42.35
2022-08-19T04:43:52.591Z,42.50
2022-08-19T04:45:01.460Z,42.68
2022-08-19T04:46:20.307Z,42.56
2022-08-19T04:47:46.951Z,42.88
2022-08-19T04:48:55.959Z,42.98
2022-08-19T04:50:07.824Z,43.19
2022-08-19T04:51:19.938Z,43.17
2022-08-19T04:52:29.771Z,43.28
2022-08-19T04:53:40.057Z,43.38
2022-08-19T04:54:50.448Z,43.16
2022-08-19T04:56:02.292Z,42.95
2022-08-19T04:57:12.299Z,42.82
2022-08-19T04:58:20.138Z,42.78
2022-08-19T04:59:28.933Z,42.69
2022-08-19T05:00:49.480Z,42.49
2022-08-19T05:01:57.395Z,42.42
2022-08-19T05:03:07.677Z,42.55
2022-08-19T05:04:16.063Z,42.40
2022-08-19T05:05:45.376Z,42.34
2022-08-19T05:07:00.983Z,42.35
2022-08-19T05:08:12.936Z,42.50
2022-08-19T05:09:24.889Z,42.26
2022-08-19T05:10:34.823Z,42.18
2022-08-19T05:11:43.585Z,42.26
2022-08-19T05:12:50.687Z,42.17
2022-08-19T05:13:58.482Z,42.13
2022-08-19T05:15:06.180Z,42.45
2022-08-19T05:16:15.977Z,42.41
2022-08-19T05:17:27.518Z,42.69
2022-08-19T05:18:58.668Z,42.68
2022-08-19T05:20:27.256Z,43.11
2022-08-19T05:21:56.042Z,43.10
2022-08-19T05:23:04.075Z,43.07
2022-08-19T05:24:26.388Z,43.31
2022-08-19T05:25:36.726Z,43.56
2022-08-19T05:26:48.568Z,43.80
2022-08-19T05:27:55.714Z,43.90
2022-08-19T05:29:03.589Z,43.92
2022-08-19T05:30:13.221Z,43.81
2022-08-19T05:31:22.002Z,44.04
2022-08-19T05:32:29.425Z,44.20
2022-08-19T05:33:36.943Z,44.02
2022-08-19T05:34:45.973Z,44.07
2022-08-19T05:35:53.510Z,44.29
2022-08-19T05:37:04.490Z,44.85
2022-08-19T05:38:13.399Z,44.99
2022-08-19T05:39:23.873Z,45.12
2022-08-19T05:40:32.047Z,45.10
2022-08-19T05:41:47.274Z,45.24
2022-08-19T05:42:55.649Z,45.14
2022-08-19T05:44:08.818Z,45.08
2022-08-19T05:45:16.097Z,45.08
2022-08-19T05:46:27.786Z,45.25
2022-08-19T05:47:42.207Z,45.03
2022-08-19T05:48:51.676Z,45.24
2022-08-19T05:50:05.094Z,46.12
2022-08-19T05:51:13.060Z,46.25
2022-08-19T05:52:28.920Z,46.39
2022-08-19T05:53:39.549Z,47.04
2022-08-19T05:54:51.199Z,46.82
2022-08-19T05:55:58.791Z,47.46
2022-08-19T05:57:06.155Z,47.75
2022-08-19T05:58:14.722Z,47.50
2022-08-19T05:59:24.822Z,47.88
2022-08-19T06:00:34.025Z,48.35
2022-08-19T06:01:42.123Z,48.65
2022-08-19T06:02:49.952Z,48.55
2022-08-19T06:04:00.017Z,48.54
2022-08-19T06:05:11.245Z,47.70
2022-08-19T06:06:21.604Z,47.37
2022-08-19T06:07:31.015Z,47.34
2022-08-19T06:08:39.652Z,47.98
2022-08-19T06:10:00.455Z,48.53
2022-08-19T06:11:19.485Z,48.79
2022-08-19T06:12:33.733Z,49.16
2022-08-19T06:13:41.283Z,49.28
2022-08-19T06:15:00.660Z,49.10
2022-08-19T06:16:11.323Z,48.88
2022-08-19T06:17:18.837Z,48.12
2022-08-19T06:18:27.673Z,47.70
2022-08-19T06:19:40.604Z,47.54
2022-08-19T06:20:58.197Z,47.42
2022-08-19T06:22:08.942Z,47.29
2022-08-19T06:23:16.328Z,47.51
2022-08-19T06:24:26.331Z,47.52
2022-08-19T06:25:33.502Z,47.32
2022-08-19T06:26:43.195Z,47.32
2022-08-19T06:28:13.953Z,47.64
2022-08-19T06:29:23.650Z,48.04
2022-08-19T06:30:34.862Z,48.17
2022-08-19T06:31:47.018Z,49.04
2022-08-19T06:32:54.145Z,50.09
2022-08-19T06:34:01.486Z,50.03
2022-08-19T06:35:11.656Z,50.01
2022-08-19T06:36:29.784Z,50.25
2022-08-19T06:37:39.720Z,50.13
2022-08-19T06:38:48.765Z,50.50
2022-08-19T06:39:56.659Z,51.11
2022-08-19T06:41:08.082Z,50.94
2022-08-19T06:42:18.945Z,50.08
2022-08-19T06:43:34.647Z,49.14
2022-08-19T06:44:48.288Z,48.73
2022-08-19T06:45:58.601Z,48.60
2022-08-19T06:47:09.466Z,48.45
2022-08-19T06:48:24.485Z,48.41
2022-08-19T06:49:39.132Z,48.26
2022-08-19T06:50:51.978Z,48.37
2022-08-19T06:51:59.856Z,48.49
2022-08-19T06:53:11.024Z,48.62
2022-08-19T06:54:21.777Z,48.58
2022-08-19T06:55:33.939Z,48.66
2022-08-19T06:56:43.407Z,48.73
2022-08-19T06:57:55.271Z,48.70
2022-08-19T06:59:10.464Z,48.75
2022-08-19T07:00:22.022Z,48.77
2022-08-19T07:01:40.218Z,48.79
2022-08-19T07:02:57.253Z,48.54
2022-08-19T07:04:12.028Z,48.64
2022-08-19T07:05:25.860Z,48.62
2022-08-19T07:06:43.753Z,48.48
2022-08-19T07:07:54.068Z,48.65
2022-08-19T07:09:09.721Z,49.32
2022-08-19T07:10:18.219Z,49.89
2022-08-19T07:11:26.921Z,49.56
2022-08-19T07:12:38.253Z,49.91
2022-08-19T07:13:57.901Z,50.15
2022-08-19T07:15:11.247Z,50.03
2022-08-19T07:16:29.007Z,50.34
2022-08-19T07:17:42.391Z,50.44
2022-08-19T07:18:54.503Z,51.02
2022-08-19T07:20:06.736Z,51.16
2022-08-19T07:21:17.534Z,51.79
2022-08-19T07:22:25.895Z,51.96
2022-08-19T07:23:33.546Z,52.03
2022-08-19T07:24:51.019Z,52.32
2022-08-19T07:26:21.659Z,52.65
2022-08-19T07:27:36.699Z,52.49
2022-08-19T07:28:51.302Z,52.71
2022-08-19T07:30:02.077Z,53.01
2022-08-19T07:31:10.417Z,53.31
2022-08-19T07:32:20.896Z,53.62
2022-08-19T07:33:29.354Z,54.04
2022-08-19T07:34:40.257Z,53.99
2022-08-19T07:35:48.119Z,54.05
2022-08-19T07:36:58.370Z,54.08
2022-08-19T07:38:06.032Z,54.00
2022-08-19T07:39:19.103Z,53.97
2022-08-19T07:40:26.932Z,54.09
2022-08-19T07:41:34.400Z,54.33
2022-08-19T07:42:41.912Z,54.41
2022-08-19T07:43:50.540Z,54.44
2022-08-19T07:44:57.802Z,54.28
2022-08-19T07:46:05.831Z,54.12
2022-08-19T07:47:48.014Z,53.99
2022-08-19T07:48:44.110Z,54.06
2022-08-19T07:49:51.424Z,53.77
2022-08-19T07:51:04.559Z,54.01
2022-08-19T07:52:13.422Z,53.99
2022-08-19T07:53:26.969Z,53.96
2022-08-19T07:54:38.326Z,53.84
2022-08-19T07:55:47.932Z,53.74
2022-08-19T07:56:54.993Z,53.80
2022-08-19T07:58:03.724Z,53.94
2022-08-19T07:59:14.027Z,53.87
2022-08-19T08:00:23.758Z,53.88
2022-08-19T08:01:33.929Z,54.00
2022-08-19T08:02:50.997Z,54.27
2022-08-19T08:04:17.747Z,54.30
2022-08-19T08:05:45.015Z,54.09
2022-08-19T08:07:14.281Z,54.06
2022-08-19T08:08:58.367Z,54.17
2022-08-19T08:10:20.087Z,53.98
2022-08-19T08:11:29.542Z,54.17
2022-08-19T08:12:43.413Z,54.34
2022-08-19T08:14:29.697Z,54.27
2022-08-19T08:15:47.125Z,54.49
2022-08-19T08:16:55.676Z,54.42
2022-08-19T08:18:04.937Z,54.33
2022-08-19T08:19:20.541Z,54.33
2022-08-19T08:20:35.113Z,54.38
2022-08-19T08:21:43.432Z,54.43
2022-08-19T08:23:19.710Z,54.65
2022-08-19T08:24:30.907Z,54.68
2022-08-19T08:25:40.110Z,54.76
2022-08-19T08:26:52.048Z,54.83
2022-08-19T08:28:02.875Z,54.99
2022-08-19T08:29:13.003Z,55.07
2022-08-19T08:30:22.955Z,55.18
2022-08-19T08:31:30.767Z,55.23
2022-08-19T08:32:39.133Z,55.19
2022-08-19T08:33:48.183Z,55.17
2022-08-19T08:34:56.209Z,55.24
2022-08-19T08:36:04.192Z,55.08
2022-08-19T08:37:11.922Z,55.27
2022-08-19T08:38:20.817Z,55.21
2022-08-19T08:39:28.520Z,55.13
2022-08-19T08:40:58.476Z,55.18
2022-08-19T08:42:24.248Z,55.20
2022-08-19T08:43:38.036Z,55.39
2022-08-19T08:45:08.246Z,55.50
2022-08-19T08:46:31.014Z,55.55
2022-08-19T08:47:44.352Z,55.65
2022-08-19T08:49:00.014Z,55.86
2022-08-19T08:50:31.945Z,55.79
2022-08-19T08:52:04.248Z,55.74
2022-08-19T08:53:29.164Z,55.85
2022-08-19T08:54:49.029Z,55.95
2022-08-19T08:56:04.361Z,56.17
2022-08-19T08:57:15.692Z,56.24
2022-08-19T08:58:44.543Z,56.14
2022-08-19T08:59:53.492Z,56.28
2022-08-19T09:01:00.653Z,56.21
2022-08-19T09:02:08.928Z,56.54
2022-08-19T09:03:32.099Z,56.36
2022-08-19T09:04:43.428Z,55.83
2022-08-19T09:05:58.072Z,55.97
2022-08-19T09:07:44.709Z,55.67
2022-08-19T09:09:12.214Z,56.00
2022-08-19T09:10:55.011Z,55.80
2022-08-19T09:12:26.759Z,55.44
2022-08-19T09:14:29.232Z,55.44
2022-08-19T09:15:45.149Z,55.49
2022-08-19T09:16:54.081Z,55.74
2022-08-19T09:18:08.846Z,56.00
2022-08-19T09:19:24.922Z,56.25
2022-08-19T09:20:33.931Z,56.43
2022-08-19T09:21:41.161Z,56.46
2022-08-19T09:22:49.016Z,56.66
2022-08-19T09:23:56.388Z,56.54
2022-08-19T09:25:03.552Z,56.75
2022-08-19T09:26:20.058Z,56.74
2022-08-19T09:27:42.829Z,56.68
2022-08-19T09:28:54.915Z,57.28
2022-08-19T09:30:09.824Z,57.01
2022-08-19T09:31:20.744Z,57.41
2022-08-19T09:32:28.533Z,57.68
2022-08-19T09:33:40.433Z,57.82
2022-08-19T09:34:51.267Z,57.99
2022-08-19T09:36:14.321Z,57.77
2022-08-19T09:37:37.428Z,57.50
2022-08-19T09:38:48.571Z,57.47
2022-08-19T09:39:57.383Z,57.22
2022-08-19T09:41:15.783Z,57.37
2022-08-19T09:42:30.512Z,57.39
2022-08-19T09:43:48.069Z,57.44
2022-08-19T09:44:57.299Z,57.33
2022-08-19T09:46:11.702Z,57.79
2022-08-19T09:47:20.044Z,59.00
2022-08-19T09:48:28.624Z,58.65
2022-08-19T09:49:36.210Z,58.50
2022-08-19T09:50:51.669Z,58.85
2022-08-19T09:52:01.218Z,59.00
2022-08-19T09:53:09.739Z,58.94
2022-08-19T09:54:18.164Z,59.09
2022-08-19T09:55:32.742Z,59.24
2022-08-19T09:56:40.272Z,59.42
2022-08-19T09:57:50.500Z,59.59
2022-08-19T09:58:57.992Z,59.28
2022-08-19T10:00:09.762Z,59.49
2022-08-19T10:01:22.192Z,59.43
2022-08-19T10:02:31.123Z,59.35
2022-08-19T10:03:40.068Z,59.59
2022-08-19T10:05:06.414Z,59.86
2022-08-19T10:06:17.388Z,59.67
2022-08-19T10:07:28.779Z,59.47
2022-08-19T10:08:50.622Z,59.49
2022-08-19T10:09:59.542Z,59.31
2022-08-19T10:11:28.460Z,59.56
2022-08-19T10:12:39.242Z,59.87
2022-08-19T10:13:47.907Z,59.84
2022-08-19T10:14:56.711Z,60.07
2022-08-19T10:16:12.702Z,59.93
2022-08-19T10:17:25.100Z,60.05
2022-08-19T10:18:39.546Z,60.41
2022-08-19T10:19:53.429Z,60.73
2022-08-19T10:21:17.866Z,60.89
2022-08-19T10:22:26.226Z,60.76
2022-08-19T10:23:33.762Z,60.58
2022-08-19T10:24:43.721Z,60.33
2022-08-19T10:25:51.971Z,60.06
2022-08-19T10:27:00.035Z,59.96
2022-08-19T10:28:10.854Z,60.27
2022-08-19T10:29:31.862Z,60.85
2022-08-19T10:30:42.488Z,60.70
2022-08-19T10:32:00.666Z,60.38
2022-08-19T10:33:11.334Z,60.23
2022-08-19T10:34:27.563Z,60.28
2022-08-19T10:35:56.356Z,60.22
2022-08-19T10:37:10.720Z,60.43
2022-08-19T10:38:19.555Z,60.42
2022-08-19T10:39:43.155Z,60.29
2022-08-19T10:40:51.554Z,60.29
2022-08-19T10:42:00.467Z,60.60
2022-08-19T10:43:10.950Z,60.72
2022-08-19T10:44:19.568Z,61.26
2022-08-19T10:45:28.439Z,61.42
2022-08-19T10:46:38.167Z,61.34
2022-08-19T10:47:45.568Z,61.20
2022-08-19T10:48:53.237Z,61.14
2022-08-19T10:50:18.826Z,61.40
2022-08-19T10:51:48.051Z,61.44
2022-08-19T10:52:56.373Z,61.56
2022-08-19T10:54:06.863Z,61.45
2022-08-19T10:55:42.370Z,61.59
2022-08-19T10:56:57.483Z,61.20
2022-08-19T10:58:04.587Z,61.04
2022-08-19T10:59:15.829Z,61.03
2022-08-19T11:00:23.747Z,61.36
2022-08-19T11:01:32.065Z,61.49
2022-08-19T11:02:39.457Z,61.62
2022-08-19T11:03:47.833Z,61.88
2022-08-19T11:04:55.280Z,62.05
2022-08-19T11:06:03.717Z,62.03
2022-08-19T11:07:10.810Z,61.92
2022-08-19T11:08:23.640Z,61.79
2022-08-19T11:09:34.166Z,61.67
2022-08-19T11:10:50.446Z,61.66
2022-08-19T11:12:02.735Z,61.52
2022-08-19T11:13:15.444Z,61.63
2022-08-19T11:14:23.702Z,61.74
2022-08-19T11:15:34.836Z,61.88
2022-08-19T11:16:42.935Z,61.94
2022-08-19T11:17:51.827Z,62.18
2022-08-19T11:19:03.593Z,62.49
2022-08-19T11:20:13.426Z,62.70
2022-08-19T11:21:25.715Z,62.61
2022-08-19T11:22:39.005Z,62.81
2022-08-19T11:23:50.397Z,62.81
2022-08-19T11:24:58.102Z,62.67
2022-08-19T11:26:06.443Z,62.65
2022-08-19T11:27:14.062Z,62.50
2022-08-19T11:28:23.209Z,62.35
2022-08-19T11:29:31.498Z,62.66
2022-08-19T11:30:41.203Z,62.87
2022-08-19T11:31:49.759Z,62.84
2022-08-19T11:32:56.829Z,62.70
2022-08-19T11:34:05.313Z,62.61
2022-08-19T11:35:13.425Z,62.90
2022-08-19T11:36:22.699Z,63.26
2022-08-19T11:37:30.032Z,63.27
2022-08-19T11:38:38.251Z,63.38
2022-08-19T11:39:45.664Z,63.20
2022-08-19T11:41:05.723Z,63.18
2022-08-19T11:42:34.927Z,63.15
2022-08-19T11:43:45.439Z,62.78
2022-08-19T11:44:56.464Z,62.56
2022-08-19T11:46:09.052Z,62.48
2022-08-19T11:47:16.261Z,62.59
2022-08-19T11:48:24.882Z,62.59
2022-08-19T11:49:32.221Z,62.71
2022-08-19T11:50:45.966Z,62.74
2022-08-19T11:51:56.553Z,62.84
2022-08-19T11:53:05.771Z,63.06
2022-08-19T11:54:15.965Z,63.12
2022-08-19T11:55:24.577Z,62.97
2022-08-19T11:56:32.431Z,63.34
2022-08-19T11:57:43.563Z,63.34
2022-08-19T11:58:52.240Z,63.37
2022-08-19T11:59:59.805Z,63.53
2022-08-19T12:01:11.191Z,63.34
2022-08-19T12:02:18.236Z,63.35
2022-08-19T12:03:27.130Z,63.31
2022-08-19T12:04:34.506Z,63.26
2022-08-19T12:05:43.209Z,63.30
2022-08-19T12:06:53.250Z,63.22
2022-08-19T12:08:01.035Z,63.19
2022-08-19T12:09:11.321Z,63.24
2022-08-19T12:10:20.025Z,63.45
2022-08-19T12:11:31.198Z,63.64
2022-08-19T12:12:45.047Z,63.74
2022-08-19T12:13:57.229Z,63.88
2022-08-19T12:15:04.931Z,64.01
2022-08-19T12:16:14.257Z,63.94
2022-08-19T12:17:22.902Z,63.71
2022-08-19T12:18:32.220Z,63.46
2022-08-19T12:19:42.923Z,63.37
2022-08-19T12:20:50.105Z,63.46
2022-08-19T12:22:04.183Z,63.66
2022-08-19T12:23:12.309Z,63.47
2022-08-19T12:24:25.170Z,63.29
2022-08-19T12:25:34.030Z,63.33
2022-08-19T12:26:53.525Z,63.25
2022-08-19T12:28:02.560Z,63.37
2022-08-19T12:29:13.900Z,63.44
2022-08-19T12:30:30.370Z,63.72
2022-08-19T12:31:38.918Z,63.81
2022-08-19T12:32:46.162Z,63.60
2022-08-19T12:33:55.617Z,63.48
2022-08-19T12:35:06.110Z,63.28
2022-08-19T12:36:15.773Z,63.33
2022-08-19T12:37:24.251Z,63.27
2022-08-19T12:38:40.138Z,63.31
2022-08-19T12:39:48.751Z,63.02
2022-08-19T12:41:00.148Z,62.88
2022-08-19T12:42:10.668Z,63.09
2022-08-19T12:43:21.262Z,63.10
2022-08-19T12:44:33.691Z,63.31
2022-08-19T12:45:42.883Z,63.71
2022-08-19T12:46:53.801Z,64.05
2022-08-19T12:48:02.644Z,63.95
2022-08-19T12:49:53.481Z,63.84
2022-08-19T12:51:21.897Z,63.88
2022-08-19T12:52:30.552Z,63.49
2022-08-19T12:53:39.333Z,63.47
2022-08-19T12:54:49.443Z,63.43
2022-08-19T12:56:02.696Z,64.06
2022-08-19T12:57:12.499Z,64.43
2022-08-19T12:58:22.240Z,64.55
2022-08-19T12:59:35.675Z,64.43
2022-08-19T13:00:43.234Z,64.33
2022-08-19T13:01:51.341Z,64.46
2022-08-19T13:03:01.723Z,64.88
2022-08-19T13:04:08.703Z,65.21
2022-08-19T13:05:18.219Z,65.17
2022-08-19T13:06:26.876Z,65.02
2022-08-19T13:07:35.927Z,65.18
2022-08-19T13:08:44.799Z,65.12
2022-08-19T13:09:55.754Z,65.27
2022-08-19T13:11:19.844Z,65.20
2022-08-19T13:12:29.436Z,65.16
2022-08-19T13:13:37.567Z,65.25
2022-08-19T13:14:52.196Z,65.43
2022-08-19T13:16:07.067Z,65.50
2022-08-19T13:17:17.715Z,65.44
2022-08-19T13:18:28.210Z,65.47
2022-08-19T13:19:36.098Z,65.40
2022-08-19T13:20:52.635Z,65.15
2022-08-19T13:22:02.597Z,65.06
2022-08-19T13:23:10.892Z,65.29
2022-08-19T13:24:19.600Z,65.47
2022-08-19T13:25:49.036Z,65.71
2022-08-19T13:26:57.376Z,65.74
2022-08-19T13:28:06.767Z,65.92
2022-08-19T13:29:37.205Z,65.92
2022-08-19T13:31:02.696Z,65.90
2022-08-19T13:32:31.989Z,65.92
2022-08-19T13:33:42.599Z,66.30
2022-08-19T13:34:49.582Z,66.52
2022-08-19T13:36:03.100Z,66.60
2022-08-19T13:37:13.089Z,66.18
2022-08-19T13:38:23.708Z,65.84
2022-08-19T13:39:34.636Z,65.65
2022-08-19T13:40:44.920Z,65.62
2022-08-19T13:41:55.240Z,65.57
2022-08-19T13:43:04.365Z,65.55
2022-08-19T13:44:31.852Z,65.68
2022-08-19T13:45:39.465Z,65.82
2022-08-19T13:46:55.523Z,65.87
2022-08-19T13:48:03.076Z,66.14
2022-08-19T13:49:17.371Z,66.00
2022-08-19T13:50:30.622Z,65.93
2022-08-19T13:51:38.018Z,65.79
2022-08-19T13:52:45.704Z,65.54
2022-08-19T13:53:54.464Z,65.14
2022-08-19T13:55:04.357Z,64.64
2022-08-19T13:56:14.448Z,64.23
2022-08-19T13:57:23.494Z,63.78
2022-08-19T13:58:32.385Z,63.33
2022-08-19T13:59:40.978Z,62.92
2022-08-19T14:00:52.065Z,62.57
2022-08-19T14:02:07.627Z,62.23
2022-08-19T14:03:14.880Z,61.70
2022-08-19T14:04:23.540Z,61.06
2022-08-19T14:05:32.293Z,60.75
2022-08-19T14:06:43.152Z,60.31
2022-08-19T14:07:55.450Z,59.60
2022-08-19T14:09:04.592Z,58.66
2022-08-19T14:10:15.245Z,57.86
2022-08-19T14:11:26.816Z,57.55
2022-08-19T14:12:38.005Z,57.49
2022-08-19T14:13:45.524Z,57.29
2022-08-19T14:14:55.652Z,57.00
2022-08-19T14:16:03.399Z,56.54
2022-08-19T14:17:13.702Z,55.54
2022-08-19T14:18:23.676Z,55.04
2022-08-19T14:19:37.660Z,55.15
2022-08-19T14:20:48.739Z,54.34
2022-08-19T14:21:56.807Z,53.55
2022-08-19T14:23:04.133Z,53.17
2022-08-19T14:24:11.654Z,52.90
2022-08-19T14:25:23.509Z,52.55
2022-08-19T14:26:31.069Z,52.38
2022-08-19T14:27:42.002Z,52.23
2022-08-19T14:28:49.436Z,51.62
2022-08-19T14:30:02.091Z,51.79
2022-08-19T14:31:10.060Z,51.19
2022-08-19T14:32:17.838Z,51.04
2022-08-19T14:33:28.471Z,50.61
2022-08-19T14:34:39.867Z,50.69
2022-08-19T14:35:48.890Z,50.20
2022-08-19T14:36:58.498Z,49.91
2022-08-19T14:38:09.738Z,50.01
2022-08-19T14:39:20.133Z,49.57
2022-08-19T14:40:28.779Z,49.03
2022-08-19T14:41:36.523Z,49.03
2022-08-19T14:42:44.980Z,48.97
2022-08-19T14:43:53.743Z,48.82
2022-08-19T14:45:01.975Z,48.70
2022-08-19T14:46:10.584Z,48.19
2022-08-19T14:47:18.861Z,47.96
2022-08-19T14:48:31.621Z,47.58
2022-08-19T14:49:44.759Z,47.42
2022-08-19T14:50:57.681Z,47.43
2022-08-19T14:52:05.558Z,47.47
2022-08-19T14:53:12.911Z,46.94
2022-08-19T14:54:25.295Z,46.70
2022-08-19T14:55:39.729Z,46.59
2022-08-19T14:56:53.010Z,46.31
2022-08-19T14:58:01.421Z,46.05
2022-08-19T14:59:16.684Z,45.99
2022-08-19T15:00:27.738Z,45.32
2022-08-19T15:01:35.425Z,45.59
2022-08-19T15:02:46.648Z,45.43
2022-08-19T15:03:57.488Z,45.54
2022-08-19T15:05:05.229Z,45.75
2022-08-19T15:06:14.922Z,45.92
2022-08-19T15:07:23.838Z,45.98
2022-08-19T15:08:42.121Z,45.93
2022-08-19T15:09:53.547Z,45.83
2022-08-19T15:11:00.887Z,45.96
2022-08-19T15:12:08.621Z,45.99
2022-08-19T15:13:17.213Z,45.85
2022-08-19T15:14:25.742Z,46.00
2022-08-19T15:15:34.689Z,45.85
2022-08-19T15:16:46.597Z,45.88
2022-08-19T15:17:58.880Z,45.25
2022-08-19T15:19:08.850Z,44.94
2022-08-19T15:20:20.632Z,44.24
2022-08-19T15:21:29.029Z,43.27
2022-08-19T15:22:38.983Z,43.10
2022-08-19T15:23:52.722Z,43.01
2022-08-19T15:25:03.308Z,42.87
2022-08-19T15:26:15.963Z,43.11
2022-08-19T15:27:27.147Z,42.08
2022-08-19T15:28:37.438Z,41.82
2022-08-19T15:29:47.962Z,41.28
2022-08-19T15:30:56.777Z,41.47
2022-08-19T15:32:04.932Z,41.40
2022-08-19T15:33:17.643Z,40.87
2022-08-19T15:34:27.624Z,39.89
2022-08-19T15:35:36.730Z,39.65
2022-08-19T15:36:48.188Z,39.69